Time;durP1;ratioP1;P1;durP2;ratioP2;P2;SDS_P1;SDS_P2;PMS_P1;PMS_P2;Temp;Humidity;BMP_temperature;BMP_pressure;BME280_temperature;BME280_humidity;BME280_pressure;Samples;Min_cycle;Max_cycle;Signal;HPM_P1;HPM_P2
2022/04/02 00:01:39;;;;;;;4.07;3.33;;;;;;;4.09;52.80;101426.28;5039099;28;20037;-62
2022/04/02 00:04:05;;;;;;;4.90;3.90;;;;;;;4.09;52.06;101425.44;5036447;28;20395;-63
2022/04/02 00:06:31;;;;;;;5.00;3.35;;;;;;;4.13;52.50;101433.09;5032027;28;20132;-63
2022/04/02 00:08:56;;;;;;;5.63;3.75;;;;;;;4.12;51.86;101425.03;5030943;28;20117;-63
2022/04/02 00:11:22;;;;;;;6.90;3.63;;;;;;;4.12;52.29;101436.84;5034662;28;20487;-63
2022/04/02 00:13:50;;;;;;;4.47;3.50;;;;;;;4.12;52.65;101434.13;5041955;28;20029;-63
2022/04/02 00:16:15;;;;;;;6.38;3.85;;;;;;;4.12;52.13;101428.63;5041277;28;20486;-63
2022/04/02 00:18:42;;;;;;;6.43;3.63;;;;;;;4.13;52.01;101433.09;5031854;28;20069;-63
2022/04/02 00:21:08;;;;;;;4.82;3.88;;;;;;;4.10;52.84;101432.63;5031201;28;20029;-63
2022/04/02 00:23:40;;;;;;;5.03;3.55;;;;;;;4.09;52.26;101429.03;5033417;28;20029;-63
2022/04/02 00:26:07;;;;;;;6.03;3.35;;;;;;;4.13;52.40;101433.09;5049609;28;20738;-63
2022/04/02 00:28:37;;;;;;;7.78;3.78;;;;;;;4.09;52.27;101442.78;5043151;28;20145;-63
2022/04/02 00:31:04;;;;;;;7.03;4.05;;;;;;;4.09;52.07;101436.44;5030700;28;20494;-63
2022/04/02 00:33:29;;;;;;;6.28;3.42;;;;;;;4.10;52.21;101440.88;5036053;28;20022;-62
2022/04/02 00:36:00;;;;;;;4.68;3.35;;;;;;;4.08;51.73;101430.06;5039564;28;20017;-62
2022/04/02 00:38:26;;;;;;;6.20;3.53;;;;;;;4.04;51.95;101423.25;5055889;28;20025;-62
2022/04/02 00:40:51;;;;;;;5.85;3.72;;;;;;;4.06;52.13;101431.31;5057219;28;20039;-62
2022/04/02 00:43:27;;;;;;;7.80;3.50;;;;;;;4.06;51.95;101431.31;5043601;28;20041;-62
2022/04/02 00:45:55;;;;;;;6.05;3.75;;;;;;;4.05;52.04;101418.59;5049700;28;20512;-62
2022/04/02 00:48:21;;;;;;;5.03;3.72;;;;;;;4.07;51.64;101427.53;5048730;28;20029;-62
2022/04/02 00:50:52;;;;;;;7.55;3.72;;;;;;;4.08;51.73;101426.47;5036768;28;20026;-62
2022/04/02 00:53:18;;;;;;;5.75;3.42;;;;;;;4.12;51.42;101423.13;5053914;28;20476;-62
2022/04/02 00:55:44;;;;;;;5.32;3.47;;;;;;;4.09;51.38;101431.78;5053918;28;20108;-62
2022/04/02 00:58:11;;;;;;;6.88;3.78;;;;;;;4.11;51.63;101429.66;5041582;28;20056;-62
2022/04/02 01:00:37;;;;;;;4.18;3.22;;;;;;;4.09;51.20;101428.19;5038649;28;20021;-62
2022/04/02 01:03:02;;;;;;;5.78;3.50;;;;;;;4.07;51.53;101428.38;5054023;28;20052;-62
2022/04/02 01:05:27;;;;;;;4.90;3.58;;;;;;;4.10;51.93;101432.63;5051149;28;20045;-62
2022/04/02 01:07:53;;;;;;;6.28;3.40;;;;;;;4.06;52.02;101437.66;5049614;28;20387;-62
2022/04/02 01:10:19;;;;;;;4.05;3.03;;;;;;;4.09;51.64;101428.19;5051680;28;20115;-62
2022/04/02 01:12:44;;;;;;;6.15;3.53;;;;;;;4.10;51.82;101433.47;5051802;28;20119;-62
2022/04/02 01:15:10;;;;;;;5.57;3.72;;;;;;;4.09;51.95;101433.69;5042199;28;20033;-62
2022/04/02 01:17:36;;;;;;;4.70;3.70;;;;;;;4.12;51.67;101431.38;5035571;28;20022;-62
2022/04/02 01:20:03;;;;;;;4.07;3.58;;;;;;;4.14;51.30;101436.69;5038258;28;20057;-62
2022/04/02 01:22:28;;;;;;;8.77;3.72;;;;;;;4.13;51.67;101432.25;5052867;28;20797;-62
2022/04/02 01:24:53;;;;;;;5.22;3.47;;;;;;;4.10;52.21;101432.63;5047443;28;20025;-62
2022/04/02 01:27:18;;;;;;;4.13;3.30;;;;;;;4.07;51.34;101425.63;5044835;28;20436;-62
2022/04/02 01:29:44;;;;;;;7.07;3.30;;;;;;;4.07;51.78;101428.38;5053646;28;20071;-62
2022/04/02 01:32:09;;;;;;;3.70;3.20;;;;;;;4.07;51.90;101433.88;5045378;28;20039;-62
2022/04/02 01:34:34;;;;;;;5.40;3.25;;;;;;;4.07;51.53;101441.25;5053327;28;20052;-62
2022/04/02 01:36:59;;;;;;;4.60;3.63;;;;;;;4.05;51.40;101429.59;5052937;28;20040;-62
2022/04/02 01:39:25;;;;;;;3.85;3.40;;;;;;;4.03;51.68;101426.22;5053335;28;20021;-62
2022/04/02 01:41:53;;;;;;;3.45;2.88;;;;;;;4.06;51.53;101421.19;5042809;28;20476;-62
2022/04/02 01:44:18;;;;;;;5.10;3.50;;;;;;;4.07;51.01;101422.88;5043528;28;20034;-62
2022/04/02 01:46:46;;;;;;;4.50;3.28;;;;;;;4.08;51.13;101423.72;5035912;28;20079;-62
2022/04/02 01:49:12;;;;;;;5.88;3.60;;;;;;;4.05;51.45;101430.47;5051077;28;20464;-62
2022/04/02 01:51:37;;;;;;;5.88;3.30;;;;;;;4.02;51.38;101419.03;5041058;28;20026;-62
2022/04/02 01:54:05;;;;;;;5.10;3.40;;;;;;;4.05;51.15;101429.59;5038678;28;20138;-62
2022/04/02 01:56:30;;;;;;;4.65;3.53;;;;;;;4.02;51.27;101436.34;5051767;28;20392;-62
2022/04/02 01:58:56;;;;;;;6.05;3.47;;;;;;;4.00;51.13;101438.44;5050105;28;20024;-62
2022/04/02 02:01:21;;;;;;;3.42;3.05;;;;;;;4.01;51.24;101431.03;5043615;28;20392;-62
2022/04/02 02:03:46;;;;;;;7.60;3.63;;;;;;;4.00;51.13;101443.94;5052626;28;20091;-62
2022/04/02 02:06:12;;;;;;;6.68;3.83;;;;;;;4.00;51.35;101448.56;5049921;28;20036;-62
2022/04/02 02:08:38;;;;;;;5.53;3.20;;;;;;;4.04;51.08;101442.47;5052024;28;20025;-62
2022/04/02 02:11:03;;;;;;;6.18;3.20;;;;;;;4.03;50.98;101449.03;5047375;28;20033;-62
2022/04/02 02:13:29;;;;;;;4.45;3.10;;;;;;;4.02;51.32;101441.84;5053215;28;20024;-62
2022/04/02 02:15:54;;;;;;;4.13;3.10;;;;;;;3.98;51.16;101437.78;5034003;28;20060;-62
2022/04/02 02:18:19;;;;;;;4.97;3.10;;;;;;;3.99;51.16;101435.91;5033454;28;20038;-62
2022/04/02 02:20:45;;;;;;;3.85;3.05;;;;;;;4.00;50.74;101441.19;5039902;28;20026;-62
2022/04/02 02:23:10;;;;;;;7.05;3.55;;;;;;;4.00;50.83;101443.94;5043177;28;20033;-62
2022/04/02 02:25:35;;;;;;;3.85;3.33;;;;;;;3.97;50.55;101449.84;5046462;28;20044;-62
2022/04/02 02:28:01;;;;;;;5.00;3.53;;;;;;;3.99;50.98;101452.38;5052089;28;20064;-63
2022/04/02 02:30:30;;;;;;;4.28;3.45;;;;;;;3.99;51.17;101450.47;5039945;28;20077;-62
2022/04/02 02:35:49;;;;;;;5.00;3.33;;;;;;;3.99;50.47;101455.97;5033808;28;20050;-62
2022/04/02 02:35:49;;;;;;;6.32;3.67;;;;;;;4.00;50.96;101454.91;5047323;28;20033;-62
2022/04/02 02:38:15;;;;;;;5.30;3.30;;;;;;;4.01;50.98;101461.25;5047480;28;20017;-62
2022/04/02 02:40:41;;;;;;;5.68;3.65;;;;;;;3.99;51.22;101464.22;5043526;28;20395;-62
2022/04/02 02:43:07;;;;;;;5.72;3.35;;;;;;;3.96;50.91;101464.59;5051286;28;20028;-62
2022/04/02 02:45:33;;;;;;;5.50;3.38;;;;;;;3.95;51.04;101468.38;5035983;28;20026;-62
2022/04/02 02:48:00;;;;;;;4.82;3.30;;;;;;;3.95;50.50;101457.41;5033325;28;20021;-62
2022/04/02 02:50:25;;;;;;;4.75;3.58;;;;;;;3.92;50.77;101460.53;5046035;28;20231;-62
2022/04/02 02:52:51;;;;;;;7.22;2.90;;;;;;;3.91;50.47;101462.44;5051935;28;20149;-62
2022/04/02 02:55:19;;;;;;;5.95;3.33;;;;;;;3.92;50.94;101461.38;5050872;28;20032;-63
2022/04/02 02:57:45;;;;;;;5.18;3.63;;;;;;;3.92;50.31;101458.63;5046302;28;20075;-62
2022/04/02 03:00:13;;;;;;;3.50;3.03;;;;;;;3.92;50.78;101460.53;5045807;28;20037;-62
2022/04/02 03:02:39;;;;;;;3.95;3.22;;;;;;;3.90;49.80;101466.22;5042453;28;20037;-62
2022/04/02 03:05:12;;;;;;;4.40;3.15;;;;;;;3.89;50.55;101467.28;5051479;28;20048;-62
2022/04/02 03:07:48;;;;;;;6.55;3.08;;;;;;;3.89;50.20;101463.66;5035776;28;20021;-62
2022/04/02 03:10:20;;;;;;;5.20;3.00;;;;;;;3.88;50.35;101472.94;5050983;28;20018;-62
2022/04/02 03:12:47;;;;;;;5.38;3.45;;;;;;;3.86;50.27;101464.91;5031676;28;20091;-62
2022/04/02 03:15:13;;;;;;;5.32;3.42;;;;;;;3.82;50.38;101471.84;5037285;28;20025;-62
2022/04/02 03:17:43;;;;;;;8.38;3.28;;;;;;;3.83;50.70;101469.94;5044980;28;20071;-63
2022/04/02 03:20:11;;;;;;;5.60;3.00;;;;;;;3.82;51.10;101462.75;5037290;28;20017;-63
2022/04/02 03:22:39;;;;;;;4.97;3.20;;;;;;;3.84;50.63;101466.16;5050716;28;20116;-62
2022/04/02 03:25:05;;;;;;;5.28;3.08;;;;;;;3.81;50.37;101464.66;5035512;28;20040;-62
2022/04/02 03:27:31;;;;;;;3.70;3.30;;;;;;;3.80;50.72;101464.84;5033906;28;20108;-62
2022/04/02 03:29:56;;;;;;;3.53;2.88;;;;;;;3.85;50.95;101476.97;5051583;28;20551;-62
2022/04/02 03:32:21;;;;;;;4.97;3.42;;;;;;;3.85;50.60;101465.09;5049511;28;20051;-62
2022/04/02 03:34:47;;;;;;;3.97;2.85;;;;;;;3.84;50.49;101469.75;5031579;28;20034;-62
2022/04/02 03:37:13;;;;;;;5.50;3.40;;;;;;;3.80;50.91;101464.84;5035106;28;20480;-62
2022/04/02 03:39:39;;;;;;;4.43;3.30;;;;;;;3.76;50.93;101466.25;5032901;28;20064;-62
2022/04/02 03:42:04;;;;;;;3.90;3.20;;;;;;;3.77;51.12;101470.72;5032245;28;20061;-62
2022/04/02 03:44:30;;;;;;;4.35;3.60;;;;;;;3.80;50.47;101462.09;5050304;28;20028;-62
2022/04/02 03:47:10;;;;;;;4.00;3.30;;;;;;;3.77;50.40;101470.72;5047065;28;20036;-62
2022/04/02 03:49:38;;;;;;;4.10;2.97;;;;;;;3.74;51.30;101477.44;5043220;28;20034;-62
2022/04/02 03:52:04;;;;;;;6.47;3.38;;;;;;;3.74;50.94;101482.94;5047499;28;20017;-62
2022/04/02 03:54:30;;;;;;;4.85;3.03;;;;;;;3.69;51.42;101491.75;5037484;28;20106;-62
2022/04/02 03:56:56;;;;;;;5.50;3.72;;;;;;;3.68;51.75;101484.56;5050780;28;20464;-62
2022/04/02 03:59:21;;;;;;;4.35;3.08;;;;;;;3.67;51.26;101491.09;5051057;28;20029;-62
2022/04/02 04:01:46;;;;;;;6.07;3.35;;;;;;;3.67;51.17;101488.34;5050251;28;20052;-62
2022/04/02 04:04:13;;;;;;;5.03;3.50;;;;;;;3.71;51.59;101480.56;5031876;28;20056;-62
2022/04/02 04:06:38;;;;;;;3.28;2.83;;;;;;;3.70;51.23;101487.13;5036237;28;20028;-62
2022/04/02 04:09:04;;;;;;;4.47;3.40;;;;;;;3.71;51.98;101482.47;5043283;28;20374;-62
2022/04/02 04:11:29;;;;;;;3.80;3.28;;;;;;;3.71;51.66;101498.94;5040235;28;20040;-62
2022/04/02 04:13:56;;;;;;;4.75;3.45;;;;;;;3.68;51.02;101495.53;5034514;28;20013;-62
2022/04/02 04:16:21;;;;;;;4.90;3.40;;;;;;;3.67;51.87;101490.25;5050295;28;20067;-62
2022/04/02 04:18:46;;;;;;;4.13;3.55;;;;;;;3.67;51.35;101502.06;5048738;28;20120;-62
2022/04/02 04:21:15;;;;;;;5.15;3.10;;;;;;;3.69;51.38;101501.88;5034004;28;20032;-62
2022/04/02 04:23:42;;;;;;;4.55;3.33;;;;;;;3.69;51.06;101500.00;5050566;28;20470;-62
2022/04/02 04:26:08;;;;;;;6.38;3.38;;;;;;;3.71;51.25;101512.69;5049262;28;20443;-62
2022/04/02 04:28:36;;;;;;;6.45;3.20;;;;;;;3.69;51.14;101510.09;5051532;28;20104;-62
2022/04/02 04:31:01;;;;;;;4.22;3.40;;;;;;;3.68;51.24;101512.00;5039457;28;20481;-62
2022/04/02 04:33:26;;;;;;;6.68;3.10;;;;;;;3.70;50.81;101503.59;5042404;28;20032;-62
2022/04/02 04:35:52;;;;;;;4.72;3.67;;;;;;;3.68;51.16;101501.03;5047086;28;20033;-62
2022/04/02 04:38:17;;;;;;;5.10;3.33;;;;;;;3.69;51.50;101508.25;5041615;28;20041;-62
2022/04/02 04:40:42;;;;;;;7.13;3.20;;;;;;;3.69;51.27;101508.25;5048639;28;21184;-62
2022/04/02 04:43:10;;;;;;;3.67;3.13;;;;;;;3.69;50.97;101518.34;5039900;28;20234;-62
2022/04/02 04:45:35;;;;;;;6.40;3.83;;;;;;;3.68;51.66;101522.13;5048995;28;20037;-62
2022/04/02 04:48:01;;;;;;;4.25;3.22;;;;;;;3.67;51.57;101520.44;5041480;28;20083;-62
2022/04/02 04:50:26;;;;;;;5.57;3.17;;;;;;;3.64;51.43;101521.66;5049070;28;20037;-63
2022/04/02 04:52:52;;;;;;;4.40;3.42;;;;;;;3.65;51.22;101533.50;5035716;28;20529;-62
2022/04/02 04:55:18;;;;;;;4.30;3.40;;;;;;;3.61;51.04;101537.66;5050519;28;20028;-62
2022/04/02 04:57:43;;;;;;;6.32;3.08;;;;;;;3.59;51.42;101537.88;5048945;28;20025;-62
2022/04/02 05:00:09;;;;;;;5.03;3.33;;;;;;;3.63;51.63;101546.56;5033710;28;20028;-62
2022/04/02 05:02:35;;;;;;;6.80;4.00;;;;;;;3.65;51.20;101544.47;5048345;28;20041;-62
2022/04/02 05:05:00;;;;;;;4.20;2.70;;;;;;;3.62;51.14;101551.22;5049426;28;20099;-62
2022/04/02 05:07:26;;;;;;;3.22;2.92;;;;;;;3.65;51.09;101555.47;5050811;28;20113;-62
2022/04/02 05:09:52;;;;;;;5.45;3.28;;;;;;;3.62;51.39;101550.38;5050528;28;20029;-62
2022/04/02 05:12:17;;;;;;;4.63;3.05;;;;;;;3.65;51.36;101561.78;5048774;28;20017;-63
2022/04/02 05:14:42;;;;;;;6.13;3.38;;;;;;;3.64;50.76;101553.75;5050575;28;20033;-62
2022/04/02 05:17:08;;;;;;;4.82;3.20;;;;;;;3.63;50.85;101558.41;5046548;28;20025;-62
2022/04/02 05:19:33;;;;;;;3.63;2.80;;;;;;;3.66;50.67;101555.28;5045404;28;20041;-63
2022/04/02 05:22:00;;;;;;;3.78;3.10;;;;;;;3.63;50.23;101563.91;5043409;28;20029;-62
2022/04/02 05:24:26;;;;;;;3.97;3.35;;;;;;;3.65;50.75;101567.28;5040704;28;20040;-62
2022/04/02 05:26:51;;;;;;;3.33;3.00;;;;;;;3.60;50.23;101571.66;5043641;28;20045;-62
2022/04/02 05:29:19;;;;;;;4.45;3.08;;;;;;;3.66;50.29;101577.25;5043649;28;20120;-62
2022/04/02 05:31:44;;;;;;;3.83;3.20;;;;;;;3.65;50.52;101577.41;5043226;28;20030;-63
2022/04/02 05:34:10;;;;;;;4.50;3.53;;;;;;;3.67;50.25;101581.69;5046283;28;20537;-62
2022/04/02 05:36:38;;;;;;;5.72;3.20;;;;;;;3.66;50.33;101590.97;5044899;28;20116;-63
2022/04/02 05:39:04;;;;;;;5.68;3.22;;;;;;;3.64;50.59;101592.19;5053671;28;20028;-62
2022/04/02 05:41:30;;;;;;;5.57;3.38;;;;;;;3.63;50.18;101599.59;5051982;28;20043;-62
2022/04/02 05:43:55;;;;;;;6.15;3.22;;;;;;;3.65;50.62;101599.38;5051591;28;20025;-62
2022/04/02 05:46:21;;;;;;;4.32;2.97;;;;;;;3.63;50.47;101599.59;5054228;28;20045;-62
2022/04/02 05:48:47;;;;;;;5.05;3.17;;;;;;;3.62;50.53;101606.13;5047170;28;20452;-62
2022/04/02 05:51:12;;;;;;;4.28;3.33;;;;;;;3.62;50.47;101606.13;5046283;28;20033;-62
2022/04/02 05:53:37;;;;;;;5.95;3.45;;;;;;;3.65;50.49;101610.34;5054859;28;20041;-62
2022/04/02 05:56:03;;;;;;;6.47;3.45;;;;;;;3.66;51.24;101612.94;5050180;28;20379;-62
2022/04/02 05:58:29;;;;;;;5.40;3.05;;;;;;;3.68;51.00;101610.00;5034005;28;20507;-62
2022/04/02 06:00:57;;;;;;;6.95;3.55;;;;;;;3.63;51.37;101613.31;5043381;28;20373;-62
2022/04/02 06:03:22;;;;;;;4.82;3.47;;;;;;;3.63;51.32;101618.78;5035284;28;20049;-62
2022/04/02 06:05:49;;;;;;;7.63;3.72;;;;;;;3.66;50.87;101623.06;5052372;28;20112;-61
2022/04/02 06:08:16;;;;;;;5.00;3.33;;;;;;;3.63;51.20;101626.19;5051898;28;20075;-61
2022/04/02 06:10:42;;;;;;;5.82;3.55;;;;;;;3.64;51.22;101622.38;5047100;28;20029;-63
2022/04/02 06:13:07;;;;;;;6.32;3.25;;;;;;;3.68;51.66;101626.47;5053621;28;20408;-62
2022/04/02 06:15:32;;;;;;;5.22;3.13;;;;;;;3.69;51.50;101630.91;5049924;28;20013;-65
2022/04/02 06:18:00;;;;;;;6.30;3.30;;;;;;;3.66;51.83;101634.91;5041904;28;20431;-64
2022/04/02 06:20:26;;;;;;;5.72;3.58;;;;;;;3.68;51.39;101635.56;5039625;28;20052;-65
2022/04/02 06:22:51;;;;;;;6.43;2.97;;;;;;;3.72;51.11;101635.19;5051967;28;20475;-65
2022/04/02 06:25:17;;;;;;;4.38;3.20;;;;;;;3.74;51.19;101639.44;5044699;28;20029;-64
2022/04/02 06:27:46;;;;;;;4.55;3.03;;;;;;;3.77;51.58;101647.28;5044211;28;20035;-63
2022/04/02 06:30:15;;;;;;;4.63;3.25;;;;;;;3.79;51.19;101649.88;5046503;28;20025;-63
2022/04/02 06:32:41;;;;;;;5.93;3.20;;;;;;;3.77;51.51;101652.78;5047315;28;20106;-61
2022/04/02 06:35:07;;;;;;;7.70;3.35;;;;;;;3.78;51.17;101654.50;5045863;28;20033;-62
2022/04/02 06:37:41;;;;;;;5.95;3.22;;;;;;;3.77;52.03;101657.41;5050429;28;20380;-62
2022/04/02 06:40:12;;;;;;;5.32;3.30;;;;;;;3.80;51.64;101659.78;5052664;28;20480;-63
2022/04/02 06:42:37;;;;;;;6.93;3.35;;;;;;;3.84;51.08;101666.63;5051812;28;20032;-63
2022/04/02 06:45:04;;;;;;;5.28;3.35;;;;;;;3.84;51.65;101670.22;5052768;28;20029;-63
2022/04/02 06:47:30;;;;;;;7.20;3.28;;;;;;;3.82;51.08;101663.22;5049320;28;20036;-63
2022/04/02 06:49:56;;;;;;;7.38;3.40;;;;;;;3.86;51.52;101672.78;5037754;28;20061;-64
2022/04/02 06:52:22;;;;;;;5.88;3.72;;;;;;;3.83;51.39;101670.41;5051245;28;20167;-61
2022/04/02 06:54:47;;;;;;;5.07;3.50;;;;;;;3.86;51.79;101670.03;5045451;28;20086;-64
2022/04/02 06:57:20;;;;;;;4.38;3.67;;;;;;;3.85;52.08;101679.28;5050722;28;20562;-64
2022/04/02 06:59:45;;;;;;;5.53;3.45;;;;;;;3.89;51.83;101681.50;5051048;28;20025;-64
2022/04/02 07:02:10;;;;;;;4.53;3.33;;;;;;;3.95;51.94;101688.13;5062291;28;20060;-63
2022/04/02 07:04:40;;;;;;;5.00;3.40;;;;;;;3.97;51.01;101685.16;5051173;28;20052;-64
2022/04/02 07:07:05;;;;;;;5.95;3.70;;;;;;;3.98;51.43;101693.25;5043874;28;20473;-62
2022/04/02 07:09:30;;;;;;;7.63;3.55;;;;;;;4.03;51.15;101689.91;5048256;28;20039;-60
2022/04/02 07:11:55;;;;;;;4.43;3.25;;;;;;;4.02;51.31;101700.06;5042111;28;20033;-63
2022/04/02 07:14:22;;;;;;;7.80;3.78;;;;;;;4.05;51.15;101702.44;5042099;28;20036;-62
2022/04/02 07:16:47;;;;;;;6.70;3.40;;;;;;;4.10;51.34;101707.34;5045733;28;20068;-63
2022/04/02 07:19:14;;;;;;;6.97;3.60;;;;;;;4.03;51.56;101699.00;5045002;28;20436;-64
2022/04/02 07:21:41;;;;;;;4.75;3.72;;;;;;;4.11;51.60;101712.66;5048253;28;20039;-62
2022/04/02 07:24:07;;;;;;;9.13;3.60;;;;;;;4.14;51.07;101714.19;5047877;28;20028;-61
2022/04/02 07:26:32;;;;;;;5.70;3.25;;;;;;;4.31;55.15;101710.16;5043881;28;20048;-62
2022/04/02 07:28:59;;;;;;;4.60;3.22;;;;;;;4.28;50.88;101715.19;5043995;28;20117;-63
2022/04/02 07:31:25;;;;;;;8.10;3.67;;;;;;;4.25;50.94;101718.34;5046666;28;20021;-63
2022/04/02 07:33:50;;;;;;;7.22;3.85;;;;;;;4.26;51.43;101722.78;5050230;28;20029;-64
2022/04/02 07:36:19;;;;;;;6.22;3.47;;;;;;;4.26;51.21;101722.78;5045042;28;20384;-63
2022/04/02 07:39:05;;;;;;;6.88;3.53;;;;;;;4.31;51.44;101726.66;5047285;28;20032;-64
2022/04/02 07:41:48;;;;;;;6.03;3.83;;;;;;;4.33;50.99;101729.25;5049374;28;20025;-63
2022/04/02 07:44:35;;;;;;;4.50;3.22;;;;;;;4.37;51.43;101736.06;5046703;28;20116;-63
2022/04/02 07:47:02;;;;;;;5.47;3.80;;;;;;;4.47;50.92;101739.34;5040342;28;20087;-61
2022/04/02 07:49:29;;;;;;;5.60;3.85;;;;;;;4.46;50.13;101740.41;5045658;28;20079;-61
2022/04/02 07:51:56;;;;;;;5.47;3.80;;;;;;;4.54;50.56;101740.28;5047152;28;20464;-62
2022/04/02 07:54:27;;;;;;;5.20;3.92;;;;;;;4.60;50.38;101744.19;5041245;28;20071;-61
2022/04/02 07:57:02;;;;;;;4.30;3.40;;;;;;;4.66;50.88;101743.41;5043024;28;20053;-62
2022/04/02 07:59:33;;;;;;;6.70;4.07;;;;;;;4.72;49.96;101744.56;5045079;28;20498;-62
2022/04/02 08:01:59;;;;;;;5.80;3.58;;;;;;;4.78;50.23;101750.13;5039825;28;20037;-62
2022/04/02 08:04:26;;;;;;;4.75;3.78;;;;;;;4.86;50.19;101752.75;5040060;28;20041;-61
2022/04/02 08:06:52;;;;;;;9.13;4.38;;;;;;;4.93;50.17;101750.94;5040431;28;20043;-62
2022/04/02 08:09:18;;;;;;;7.95;3.92;;;;;;;4.99;50.37;101748.44;5048209;28;20083;-63
2022/04/02 08:11:45;;;;;;;6.75;3.70;;;;;;;5.02;50.06;101746.16;5051770;28;20033;-63
2022/04/02 08:14:11;;;;;;;5.72;3.70;;;;;;;5.04;50.30;101749.56;5050511;28;20055;-63
2022/04/02 08:16:42;;;;;;;8.05;4.18;;;;;;;5.03;50.21;101753.38;5052180;28;20025;-63
2022/04/02 08:19:10;;;;;;;8.02;4.65;;;;;;;5.08;50.03;101756.41;5067068;28;20063;-63
2022/04/02 08:21:36;;;;;;;6.93;4.13;;;;;;;5.17;50.38;101752.47;5070325;28;20480;-63
2022/04/02 08:24:02;;;;;;;5.80;4.03;;;;;;;5.20;50.53;101759.47;5054010;28;20033;-63
2022/04/02 08:27:01;;;;;;;4.93;4.05;;;;;;;5.23;50.47;101755.50;5051910;28;20029;-62
2022/04/02 08:29:54;;;;;;;6.93;4.43;;;;;;;5.21;50.46;101752.06;5050924;28;20033;-62
2022/04/02 08:32:35;;;;;;;6.63;4.20;;;;;;;5.21;50.52;101761.19;5051147;28;20055;-62
2022/04/02 08:35:05;;;;;;;7.22;3.90;;;;;;;5.21;50.12;101766.69;5032538;28;20520;-62
2022/04/02 08:37:44;;;;;;;6.00;4.05;;;;;;;5.25;50.45;101764.41;5037242;28;20069;-62
2022/04/02 08:40:21;;;;;;;5.95;4.03;;;;;;;5.29;50.21;101757.44;5051030;28;20503;-62
2022/04/02 08:43:02;;;;;;;6.40;3.85;;;;;;;5.31;50.50;101771.88;5050408;28;20041;-62
2022/04/02 08:45:32;;;;;;;8.05;4.53;;;;;;;5.24;49.32;101780.06;5051207;28;20452;-63
2022/04/02 08:48:00;;;;;;;6.68;4.57;;;;;;;5.22;50.50;101789.56;5047789;28;20040;-63
2022/04/02 08:50:31;;;;;;;6.07;3.85;;;;;;;5.15;50.48;101789.50;5030650;28;20074;-62
2022/04/02 08:53:09;;;;;;;6.20;4.65;;;;;;;5.11;50.81;101782.69;5041006;28;20063;-62
2022/04/02 08:55:35;;;;;;;9.50;5.20;;;;;;;5.07;51.17;101793.22;5055097;28;20090;-62
2022/04/02 08:58:03;;;;;;;5.75;4.95;;;;;;;5.09;51.34;101788.38;5053951;28;20072;-62
2022/04/02 09:00:38;;;;;;;6.30;4.68;;;;;;;5.06;51.44;101790.66;5048287;28;20040;-62
2022/04/02 09:03:24;;;;;;;8.25;4.90;;;;;;;5.06;51.42;101804.41;5035081;28;20045;-62
2022/04/02 09:06:25;;;;;;;5.13;4.20;;;;;;;5.05;51.47;101805.47;5045033;28;20031;-62
2022/04/02 09:09:02;;;;;;;7.35;4.63;;;;;;;5.04;51.34;101803.75;5012263;28;20092;-62
2022/04/02 09:11:46;;;;;;;8.13;4.55;;;;;;;5.06;51.58;101808.00;5031278;28;20044;-61
2022/04/02 09:14:25;;;;;;;8.07;4.70;;;;;;;5.04;51.87;101812.00;5035098;28;20404;-62
2022/04/02 09:16:55;;;;;;;7.95;4.90;;;;;;;5.01;52.67;101817.91;5035731;28;20030;-62
2022/04/02 09:19:48;;;;;;;7.13;4.75;;;;;;;5.03;52.15;101816.66;5034303;28;20116;-62
2022/04/02 09:22:50;;;;;;;6.43;4.60;;;;;;;5.03;52.16;101819.41;5037756;28;20477;-62
2022/04/02 09:25:15;;;;;;;8.10;4.70;;;;;;;4.99;51.55;101823.59;5052687;28;20058;-62
2022/04/02 09:28:28;;;;;;;9.65;5.05;;;;;;;4.93;51.48;101822.47;5054497;28;20036;-61
2022/04/02 09:31:25;;;;;;;7.55;4.93;;;;;;;4.89;51.77;101823.03;5017122;28;20120;-62
2022/04/02 09:34:00;;;;;;;5.60;4.88;;;;;;;4.94;52.29;101826.06;5034216;28;20041;-62
2022/04/02 09:37:02;;;;;;;6.95;4.90;;;;;;;5.04;52.63;101843.13;5034682;28;20037;-62
2022/04/02 09:39:52;;;;;;;8.98;5.55;;;;;;;5.00;51.76;101832.72;5036796;28;20040;-62
2022/04/02 09:42:46;;;;;;;9.32;5.45;;;;;;;4.87;51.29;101837.00;5046844;28;20064;-62
2022/04/02 09:45:18;;;;;;;6.15;4.90;;;;;;;4.78;52.20;101832.63;5054513;28;20372;-62
2022/04/02 09:47:46;;;;;;;7.10;4.70;;;;;;;4.82;51.93;101828.44;5043550;28;20057;-62
2022/04/02 09:50:14;;;;;;;6.75;4.60;;;;;;;4.88;51.78;101832.34;5048507;28;20121;-62
2022/04/02 09:52:54;;;;;;;8.23;5.40;;;;;;;5.01;52.36;101828.91;5053448;28;20029;-62
2022/04/02 09:55:22;;;;;;;6.13;5.05;;;;;;;5.18;51.21;101833.97;5045232;28;20029;-62
2022/04/02 09:58:13;;;;;;;8.90;5.03;;;;;;;5.25;51.00;101836.81;5034478;28;20574;-63
2022/04/02 10:00:48;;;;;;;8.15;4.60;;;;;;;5.31;50.14;101835.19;5034137;28;20029;-62
2022/04/02 10:03:36;;;;;;;6.22;4.50;;;;;;;5.47;50.46;101834.94;5038165;28;20400;-63
2022/04/02 10:06:20;;;;;;;7.80;4.75;;;;;;;5.59;49.51;101830.63;5042808;28;20041;-63
2022/04/02 10:09:04;;;;;;;6.75;4.32;;;;;;;5.60;49.05;101831.47;5046621;28;20498;-64
2022/04/02 10:11:30;;;;;;;9.93;4.43;;;;;;;5.57;48.74;101832.72;5042262;28;20396;-63
2022/04/02 10:14:00;;;;;;;7.13;4.68;;;;;;;5.58;48.53;101826.19;5051243;28;20029;-64
2022/04/02 10:16:27;;;;;;;6.80;4.97;;;;;;;5.59;48.13;101824.28;5043370;28;20112;-64
2022/04/02 10:18:54;;;;;;;6.20;4.50;;;;;;;5.67;48.57;101815.88;5039305;28;20029;-63
2022/04/02 10:21:21;;;;;;;6.13;4.50;;;;;;;5.74;47.76;101819.56;5051037;28;20036;-64
2022/04/02 10:23:54;;;;;;;5.03;4.53;;;;;;;5.76;48.02;101819.34;5055579;28;20641;-63
2022/04/02 10:26:23;;;;;;;6.63;4.45;;;;;;;5.74;48.11;101808.53;5041941;28;20095;-62
2022/04/02 10:28:58;;;;;;;7.20;4.50;;;;;;;5.74;48.51;101805.78;5048327;28;20132;-61
2022/04/02 10:31:36;;;;;;;6.88;4.65;;;;;;;5.71;49.11;101810.81;5041821;28;20039;-65
2022/04/02 10:34:40;;;;;;;5.57;4.88;;;;;;;5.72;49.82;101810.63;5044485;28;20400;-62
2022/04/02 10:37:13;;;;;;;7.72;4.20;;;;;;;5.62;50.06;101819.22;5036783;28;20090;-64
2022/04/02 10:39:58;;;;;;;4.88;4.15;;;;;;;5.55;50.52;101823.81;5046762;28;20029;-65
2022/04/02 10:42:57;;;;;;;8.70;4.78;;;;;;;5.50;50.75;101806.16;5048933;28;20041;-63
2022/04/02 10:45:25;;;;;;;6.53;4.65;;;;;;;5.43;50.46;101819.03;5033665;28;20048;-63
2022/04/02 10:48:01;;;;;;;6.70;4.55;;;;;;;5.43;50.85;101819.03;5043186;28;20032;-63
2022/04/02 10:50:27;;;;;;;9.38;4.95;;;;;;;5.40;51.27;101814.75;5043131;28;20480;-63
2022/04/02 10:52:58;;;;;;;5.90;4.70;;;;;;;5.39;51.02;101824.06;5043362;28;20037;-61
2022/04/02 10:55:27;;;;;;;6.25;4.45;;;;;;;5.40;50.51;101823.00;5045365;28;20036;-61
2022/04/02 10:57:53;;;;;;;6.20;4.70;;;;;;;5.37;49.96;101823.41;5037943;28;20028;-62
2022/04/02 11:00:19;;;;;;;6.32;4.88;;;;;;;5.37;50.67;101823.41;5038436;28;20361;-61
2022/04/02 11:02:46;;;;;;;7.90;4.78;;;;;;;5.38;50.06;101823.22;5045065;28;20040;-63
2022/04/02 11:05:17;;;;;;;5.50;4.18;;;;;;;5.38;50.01;101827.84;5044371;28;20036;-62
2022/04/02 11:07:45;;;;;;;9.05;4.75;;;;;;;5.36;50.73;101824.44;5042726;28;20745;-61
2022/04/02 11:10:15;;;;;;;6.85;4.78;;;;;;;5.35;50.55;101823.59;5039120;28;20844;-62
2022/04/02 11:12:44;;;;;;;7.43;4.63;;;;;;;5.34;50.51;101827.38;5047790;28;20052;-62
2022/04/02 11:15:27;;;;;;;5.80;4.30;;;;;;;5.35;50.06;101822.75;5039478;28;20028;-62
2022/04/02 11:18:01;;;;;;;6.13;4.35;;;;;;;5.36;49.78;101817.03;5042272;28;20026;-62
2022/04/02 11:20:32;;;;;;;6.15;4.75;;;;;;;5.40;50.59;101817.50;5044161;28;20032;-62
2022/04/02 11:23:21;;;;;;;6.93;4.68;;;;;;;5.44;50.46;101810.56;5040847;28;20033;-61
2022/04/02 11:26:01;;;;;;;6.63;4.75;;;;;;;5.48;49.80;101806.34;5040742;28;20559;-62
2022/04/02 11:28:41;;;;;;;9.77;5.10;;;;;;;5.55;49.79;101809.19;5044817;28;20029;-60
2022/04/02 11:31:07;;;;;;;5.32;4.50;;;;;;;5.57;49.22;101807.94;5041990;28;20021;-61
2022/04/02 11:33:33;;;;;;;5.43;4.18;;;;;;;5.63;48.62;101804.41;5041731;28;20043;-61
2022/04/02 11:36:04;;;;;;;5.90;4.15;;;;;;;5.69;48.27;101808.25;5043485;28;20054;-61
2022/04/02 11:38:47;;;;;;;5.18;4.40;;;;;;;5.74;47.66;101811.28;5044885;28;20033;-61
2022/04/02 11:41:20;;;;;;;5.32;3.83;;;;;;;5.71;47.20;101810.81;5043454;28;20026;-61
2022/04/02 11:43:48;;;;;;;5.25;3.83;;;;;;;5.75;48.45;101814.88;5041207;28;20388;-61
2022/04/02 11:46:17;;;;;;;6.60;4.18;;;;;;;5.72;47.37;101805.09;5036868;28;20112;-60